createdAt,value
2023-05-18T00:02:04.690Z,63.38
2023-05-18T00:04:34.542Z,63.93
2023-05-18T00:07:06.833Z,70.98
2023-05-18T00:09:35.470Z,76.75
2023-05-18T00:12:04.395Z,71.00
2023-05-18T00:14:31.859Z,75.62
2023-05-18T00:17:01.898Z,71.68
2023-05-18T00:19:30.140Z,62.60
2023-05-18T00:21:57.980Z,65.99
2023-05-18T00:24:25.590Z,63.46
2023-05-18T00:26:52.822Z,64.84
2023-05-18T00:29:19.972Z,64.85
2023-05-18T00:31:47.514Z,66.90
2023-05-18T00:34:15.236Z,64.92
2023-05-18T00:36:43.004Z,73.98
2023-05-18T00:39:10.535Z,78.44
2023-05-18T00:41:37.810Z,72.17
2023-05-18T00:44:05.318Z,67.54
2023-05-18T00:46:33.481Z,65.41
2023-05-18T00:49:02.197Z,71.62
2023-05-18T00:51:29.833Z,73.65
2023-05-18T00:53:58.355Z,80.34
2023-05-18T00:56:26.355Z,70.55
2023-05-18T00:58:57.782Z,70.55
2023-05-18T01:01:29.312Z,81.37
2023-05-18T01:03:58.120Z,86.87
2023-05-18T01:06:25.675Z,86.88
2023-05-18T01:08:53.592Z,87.78
2023-05-18T01:11:34.204Z,90.31
2023-05-18T01:14:06.640Z,82.88
2023-05-18T01:16:41.737Z,90.23
2023-05-18T01:19:36.112Z,91.33
2023-05-18T01:22:09.144Z,87.68
2023-05-18T01:24:43.233Z,92.85
2023-05-18T01:27:11.845Z,92.40
2023-05-18T01:29:39.306Z,89.32
2023-05-18T01:32:09.388Z,93.32
2023-05-18T01:34:36.615Z,92.68
2023-05-18T01:37:04.164Z,88.89
2023-05-18T01:39:31.504Z,90.23
2023-05-18T01:41:59.736Z,92.34
2023-05-18T01:44:29.025Z,93.18
2023-05-18T01:46:56.176Z,91.25
2023-05-18T01:49:39.334Z,89.56
2023-05-18T01:52:27.599Z,91.32
2023-05-18T01:54:55.492Z,94.55
2023-05-18T01:57:24.133Z,84.03
2023-05-18T01:59:51.448Z,89.96
2023-05-18T02:02:18.700Z,89.50
2023-05-18T02:04:46.233Z,89.72
2023-05-18T02:07:13.482Z,92.02
2023-05-18T02:09:41.036Z,88.03
2023-05-18T02:12:08.550Z,77.94
2023-05-18T02:14:36.109Z,90.81
2023-05-18T02:17:03.511Z,91.23
2023-05-18T02:19:31.197Z,87.00
2023-05-18T02:21:58.455Z,86.54
2023-05-18T02:24:25.725Z,88.73
2023-05-18T02:26:53.274Z,89.57
2023-05-18T02:29:20.832Z,84.83
2023-05-18T02:31:48.063Z,90.62
2023-05-18T02:34:17.112Z,91.22
2023-05-18T02:36:46.231Z,85.43
2023-05-18T02:39:13.602Z,92.75
2023-05-18T02:41:40.976Z,87.18
2023-05-18T02:44:08.673Z,91.37
2023-05-18T02:46:35.968Z,83.79
2023-05-18T02:49:03.186Z,84.16
2023-05-18T02:51:31.572Z,93.91
2023-05-18T02:53:58.958Z,86.52
2023-05-18T02:56:26.654Z,84.45
2023-05-18T02:58:58.251Z,73.88
2023-05-18T03:01:28.984Z,71.08
2023-05-18T03:03:59.538Z,75.40
2023-05-18T03:06:27.238Z,72.96
2023-05-18T03:08:54.919Z,71.71
2023-05-18T03:11:23.202Z,73.56
2023-05-18T03:13:50.442Z,74.57
2023-05-18T03:16:17.685Z,79.07
2023-05-18T03:18:46.226Z,74.13
2023-05-18T03:21:16.709Z,75.49
2023-05-18T03:23:43.907Z,77.50
2023-05-18T03:26:12.453Z,77.22
2023-05-18T03:28:39.686Z,88.34
2023-05-18T03:31:06.985Z,81.60
2023-05-18T03:33:34.516Z,85.85
2023-05-18T03:36:02.763Z,80.12
2023-05-18T03:38:30.026Z,90.73
2023-05-18T03:40:58.210Z,91.02
2023-05-18T03:43:26.069Z,78.44
2023-05-18T03:45:53.987Z,76.15
2023-05-18T03:48:22.799Z,79.71
2023-05-18T03:50:50.018Z,88.95
2023-05-18T03:53:21.527Z,78.70
2023-05-18T03:55:52.437Z,81.81
2023-05-18T03:58:20.277Z,90.87
2023-05-18T04:00:47.590Z,82.73
2023-05-18T04:03:15.294Z,86.48
2023-05-18T04:05:45.992Z,82.36
2023-05-18T04:08:14.751Z,90.17
2023-05-18T04:10:43.233Z,93.33
2023-05-18T04:13:10.598Z,96.14
2023-05-18T04:15:38.113Z,92.97
2023-05-18T04:18:05.713Z,93.36
2023-05-18T04:20:33.052Z,90.90
2023-05-18T04:23:01.292Z,88.07
2023-05-18T04:25:28.962Z,78.39
2023-05-18T04:27:56.800Z,92.65
2023-05-18T04:30:26.643Z,88.28
2023-05-18T04:32:54.772Z,85.85
2023-05-18T04:35:22.331Z,76.74
2023-05-18T04:37:49.932Z,81.90
2023-05-18T04:40:17.771Z,78.65
2023-05-18T04:42:49.518Z,87.26
2023-05-18T04:45:19.298Z,82.99
2023-05-18T04:47:48.537Z,88.36
2023-05-18T04:50:16.229Z,74.38
2023-05-18T04:52:48.037Z,85.95
2023-05-18T04:55:23.163Z,92.11
2023-05-18T04:57:50.982Z,86.26
2023-05-18T05:00:18.526Z,83.26
2023-05-18T05:02:46.451Z,83.05
2023-05-18T05:05:14.163Z,88.58
2023-05-18T05:07:41.467Z,90.50
2023-05-18T05:10:09.685Z,83.32
2023-05-18T05:12:37.682Z,81.21
2023-05-18T05:15:06.364Z,85.46
2023-05-18T05:17:33.703Z,82.93
2023-05-18T05:20:01.326Z,84.07
2023-05-18T05:22:29.116Z,81.79
2023-05-18T05:24:56.578Z,91.06
2023-05-18T05:27:26.208Z,74.78
2023-05-18T05:29:53.508Z,79.59
2023-05-18T05:32:20.730Z,82.63
2023-05-18T05:34:51.815Z,78.39
2023-05-18T05:37:19.795Z,77.91
2023-05-18T05:39:48.483Z,76.42
2023-05-18T05:42:16.760Z,75.78
2023-05-18T05:44:44.040Z,71.18
2023-05-18T05:47:11.299Z,75.14
2023-05-18T05:49:39.019Z,80.49
2023-05-18T05:52:07.006Z,83.33
2023-05-18T05:54:34.345Z,75.20
2023-05-18T05:57:01.901Z,71.79
2023-05-18T05:59:29.384Z,67.09
2023-05-18T06:01:56.830Z,67.91
2023-05-18T06:04:24.792Z,75.63
2023-05-18T06:06:53.184Z,73.76
2023-05-18T06:09:21.289Z,77.20
2023-05-18T06:11:49.253Z,74.84
2023-05-18T06:14:16.913Z,71.03
2023-05-18T06:16:44.476Z,67.73
2023-05-18T06:19:12.367Z,65.43
2023-05-18T06:21:39.798Z,66.56
2023-05-18T06:24:07.915Z,71.64
2023-05-18T06:26:35.424Z,76.58
2023-05-18T06:29:03.059Z,82.19
2023-05-18T06:31:30.732Z,83.73
2023-05-18T06:33:58.601Z,70.06
2023-05-18T06:36:25.915Z,64.60
2023-05-18T06:38:53.501Z,68.82
2023-05-18T06:41:22.327Z,75.08
2023-05-18T06:43:50.815Z,74.01
2023-05-18T06:46:21.178Z,70.57
2023-05-18T06:48:49.929Z,82.20
2023-05-18T06:51:17.199Z,87.24
2023-05-18T06:53:44.693Z,89.69
2023-05-18T06:56:13.136Z,80.96
2023-05-18T06:58:41.527Z,82.39
2023-05-18T07:01:09.360Z,82.79
2023-05-18T07:03:39.712Z,87.71
2023-05-18T07:06:07.090Z,92.11
2023-05-18T07:08:37.269Z,88.90
2023-05-18T07:11:05.425Z,87.51
2023-05-18T07:13:32.768Z,89.15
2023-05-18T07:16:00.007Z,86.81
2023-05-18T07:18:27.578Z,86.38
2023-05-18T07:20:54.769Z,84.17
2023-05-18T07:23:22.496Z,73.87
2023-05-18T07:25:50.145Z,74.45
2023-05-18T07:28:17.387Z,84.93
2023-05-18T07:30:44.577Z,78.40
2023-05-18T07:33:12.257Z,71.10
2023-05-18T07:35:39.475Z,71.36
2023-05-18T07:38:06.694Z,79.47
2023-05-18T07:40:34.236Z,67.18
2023-05-18T07:43:01.572Z,62.70
2023-05-18T07:45:29.186Z,65.06
2023-05-18T07:47:57.794Z,64.37
2023-05-18T07:50:25.149Z,65.97
2023-05-18T07:52:52.367Z,70.08
2023-05-18T07:55:19.920Z,64.05
2023-05-18T07:57:47.188Z,63.44
2023-05-18T08:00:14.733Z,62.09
2023-05-18T08:02:43.048Z,59.42
2023-05-18T08:05:11.086Z,59.38
2023-05-18T08:07:38.369Z,62.75
2023-05-18T08:10:06.147Z,64.00
2023-05-18T08:12:33.628Z,63.84
2023-05-18T08:15:00.926Z,67.42
2023-05-18T08:17:28.152Z,59.45
2023-05-18T08:19:57.248Z,61.38
2023-05-18T08:22:24.514Z,63.09
2023-05-18T08:24:52.086Z,61.48
2023-05-18T08:27:20.085Z,62.79
2023-05-18T08:29:47.413Z,63.27
2023-05-18T08:32:14.953Z,67.15
2023-05-18T08:34:42.728Z,59.16
2023-05-18T08:37:10.107Z,60.85
2023-05-18T08:39:38.259Z,66.40
2023-05-18T08:42:41.490Z,71.47
2023-05-18T08:45:42.904Z,71.17
2023-05-18T08:48:11.284Z,67.39
2023-05-18T08:50:38.641Z,65.46
2023-05-18T08:53:06.413Z,66.71
2023-05-18T08:55:37.489Z,70.99
2023-05-18T08:58:07.181Z,71.37
2023-05-18T09:00:35.396Z,65.91
2023-05-18T09:03:04.612Z,64.54
2023-05-18T09:05:32.341Z,64.58
2023-05-18T09:08:00.442Z,64.56
2023-05-18T09:10:27.668Z,61.12
2023-05-18T09:12:54.931Z,62.68
2023-05-18T09:15:25.287Z,63.37
2023-05-18T09:17:52.794Z,65.64
2023-05-18T09:20:20.771Z,66.83
2023-05-18T09:22:51.428Z,68.60
2023-05-18T09:25:18.864Z,65.39
2023-05-18T09:27:46.680Z,65.29
2023-05-18T09:30:14.225Z,64.31
2023-05-18T09:32:41.820Z,65.09
2023-05-18T09:35:09.378Z,61.67
2023-05-18T09:37:37.206Z,61.86
2023-05-18T09:40:05.602Z,59.95
2023-05-18T09:42:37.947Z,61.18
2023-05-18T09:45:24.259Z,59.72
2023-05-18T09:47:51.663Z,58.88
2023-05-18T09:50:20.076Z,62.06
2023-05-18T09:52:49.271Z,61.13
2023-05-18T09:55:17.295Z,60.55
2023-05-18T09:57:49.534Z,61.55
2023-05-18T10:00:19.128Z,59.38
2023-05-18T10:02:52.464Z,59.20
2023-05-18T10:05:23.452Z,59.67
2023-05-18T10:07:51.171Z,59.85
2023-05-18T10:10:19.910Z,61.44
2023-05-18T10:12:47.376Z,61.25
2023-05-18T10:15:15.603Z,58.00
2023-05-18T10:17:43.386Z,57.91
2023-05-18T10:20:10.899Z,58.67
2023-05-18T10:22:38.431Z,60.16
2023-05-18T10:25:06.301Z,65.20
2023-05-18T10:27:34.600Z,65.69
2023-05-18T10:30:05.340Z,59.17
2023-05-18T10:32:32.611Z,68.40
2023-05-18T10:35:00.285Z,70.12
2023-05-18T10:37:30.822Z,69.27
2023-05-18T10:39:58.708Z,68.97
2023-05-18T10:42:26.372Z,63.78
2023-05-18T10:44:54.638Z,60.64
2023-05-18T10:47:21.952Z,57.92
2023-05-18T10:49:49.352Z,67.23
2023-05-18T10:52:17.058Z,63.79
2023-05-18T10:54:44.531Z,69.42
2023-05-18T10:57:12.106Z,73.92
2023-05-18T10:59:42.563Z,73.70
2023-05-18T11:02:13.638Z,71.45
2023-05-18T11:04:41.379Z,72.60
2023-05-18T11:07:12.409Z,71.75
2023-05-18T11:09:43.124Z,69.63
2023-05-18T11:12:14.287Z,67.84
2023-05-18T11:14:48.681Z,67.87
2023-05-18T11:17:19.105Z,65.23
2023-05-18T11:20:09.445Z,69.59
2023-05-18T11:22:42.785Z,60.62
2023-05-18T11:25:10.013Z,63.20
2023-05-18T11:27:37.466Z,66.43
2023-05-18T11:30:15.322Z,64.20
2023-05-18T11:32:49.940Z,65.70
2023-05-18T11:35:23.057Z,61.02
2023-05-18T11:37:50.617Z,62.03
2023-05-18T11:40:36.817Z,61.45
2023-05-18T11:43:04.382Z,62.98
2023-05-18T11:45:31.486Z,63.44
2023-05-18T11:47:58.602Z,66.76
2023-05-18T11:50:26.179Z,61.42
2023-05-18T11:52:53.532Z,64.10
2023-05-18T11:55:21.063Z,69.00
2023-05-18T11:57:49.158Z,66.42
2023-05-18T12:00:19.420Z,70.29
2023-05-18T12:02:47.617Z,67.13
2023-05-18T12:05:15.279Z,70.98
2023-05-18T12:07:42.473Z,65.66
2023-05-18T12:10:10.878Z,67.01
2023-05-18T12:12:38.346Z,68.47
2023-05-18T12:15:06.490Z,61.44
2023-05-18T12:17:49.854Z,66.27
2023-05-18T12:20:25.300Z,60.02
2023-05-18T12:22:53.858Z,63.66
2023-05-18T12:25:22.008Z,65.49
2023-05-18T12:27:49.580Z,63.96
2023-05-18T12:30:20.814Z,65.43
2023-05-18T12:32:52.060Z,59.87
2023-05-18T12:35:26.144Z,62.03
2023-05-18T12:37:56.054Z,59.56
2023-05-18T12:40:24.228Z,57.56
2023-05-18T12:43:00.852Z,62.85
2023-05-18T12:45:29.376Z,59.12
2023-05-18T12:47:57.424Z,63.90
2023-05-18T12:50:28.510Z,60.41
2023-05-18T12:52:56.687Z,62.79
2023-05-18T12:55:25.338Z,63.86
2023-05-18T12:58:02.590Z,61.33
2023-05-18T13:00:33.904Z,57.14
2023-05-18T13:03:08.493Z,66.46
2023-05-18T13:05:37.627Z,63.09
2023-05-18T13:08:05.153Z,60.69
2023-05-18T13:10:33.127Z,62.84
2023-05-18T13:13:03.963Z,68.64
2023-05-18T13:15:35.864Z,71.45
2023-05-18T13:18:04.357Z,70.67
2023-05-18T13:20:36.678Z,67.36
2023-05-18T13:23:06.154Z,66.71
2023-05-18T13:25:33.752Z,62.85
2023-05-18T13:28:01.629Z,65.51
2023-05-18T13:30:29.443Z,65.62
2023-05-18T13:32:57.567Z,62.96
2023-05-18T13:35:24.865Z,68.26
2023-05-18T13:37:52.363Z,63.49
2023-05-18T13:40:20.779Z,64.61
2023-05-18T13:42:48.554Z,64.44
2023-05-18T13:45:16.410Z,65.16
2023-05-18T13:47:45.881Z,68.16
2023-05-18T13:50:13.280Z,66.28
2023-05-18T13:52:40.810Z,65.36
2023-05-18T13:55:09.971Z,65.44
2023-05-18T13:57:37.761Z,62.89
2023-05-18T14:00:10.463Z,66.68
2023-05-18T14:02:42.390Z,66.41
2023-05-18T14:05:10.522Z,59.55
2023-05-18T14:07:38.100Z,63.76
2023-05-18T14:10:05.990Z,58.92
2023-05-18T14:12:33.710Z,56.32
2023-05-18T14:15:00.965Z,54.20
2023-05-18T14:17:29.915Z,54.50
2023-05-18T14:19:57.621Z,54.14
2023-05-18T14:22:26.286Z,55.51
2023-05-18T14:24:53.615Z,59.17
2023-05-18T14:27:21.220Z,60.10
2023-05-18T14:29:48.741Z,57.41
2023-05-18T14:32:15.909Z,61.66
2023-05-18T14:34:43.332Z,57.76
2023-05-18T14:37:10.606Z,58.09
2023-05-18T14:39:37.972Z,59.65
2023-05-18T14:42:05.956Z,68.20
2023-05-18T14:44:33.202Z,60.65
2023-05-18T14:47:00.488Z,59.63
2023-05-18T14:49:28.000Z,62.05
2023-05-18T14:51:55.079Z,62.29
2023-05-18T14:54:22.561Z,65.04
2023-05-18T14:56:49.959Z,63.90
2023-05-18T14:59:17.055Z,57.29
2023-05-18T15:01:44.296Z,58.66
2023-05-18T15:04:12.059Z,56.92
2023-05-18T15:06:39.501Z,56.69
2023-05-18T15:09:08.477Z,58.05
2023-05-18T15:11:35.927Z,56.61
2023-05-18T15:14:03.048Z,60.70
2023-05-18T15:16:30.203Z,56.64
2023-05-18T15:18:57.841Z,55.53
2023-05-18T15:21:25.049Z,53.97
2023-05-18T15:23:52.371Z,54.74
2023-05-18T15:26:19.871Z,55.20
2023-05-18T15:28:47.344Z,53.55
2023-05-18T15:31:14.483Z,55.40
2023-05-18T15:33:43.819Z,55.63
2023-05-18T15:36:11.028Z,55.52
2023-05-18T15:38:38.266Z,57.52
2023-05-18T15:41:05.706Z,54.65
2023-05-18T15:43:33.780Z,55.39
2023-05-18T15:46:01.060Z,60.91
2023-05-18T15:48:29.727Z,65.49
2023-05-18T15:50:56.839Z,65.63
2023-05-18T15:53:24.120Z,64.67
2023-05-18T15:55:57.492Z,61.80
2023-05-18T15:58:25.656Z,63.01
2023-05-18T16:00:53.273Z,62.13
2023-05-18T16:03:20.985Z,63.17
2023-05-18T16:05:48.177Z,62.47
2023-05-18T16:08:15.426Z,63.67
2023-05-18T16:10:42.817Z,62.76
2023-05-18T16:13:09.933Z,60.54
2023-05-18T16:15:37.151Z,62.16
2023-05-18T16:18:05.087Z,61.88
2023-05-18T16:20:32.566Z,59.07
2023-05-18T16:22:59.979Z,55.00
2023-05-18T16:25:28.765Z,57.22
2023-05-18T16:27:55.883Z,56.74
2023-05-18T16:30:23.082Z,57.55
2023-05-18T16:32:50.676Z,57.51
2023-05-18T16:35:17.894Z,55.46
2023-05-18T16:37:45.090Z,52.45
2023-05-18T16:40:12.566Z,52.51
2023-05-18T16:42:39.634Z,49.66
2023-05-18T16:45:06.990Z,49.34
2023-05-18T16:47:34.385Z,50.05
2023-05-18T16:50:01.825Z,55.05
2023-05-18T16:52:28.994Z,50.95
2023-05-18T16:54:56.431Z,49.06
2023-05-18T16:57:27.235Z,52.00
2023-05-18T16:59:54.695Z,52.32
2023-05-18T17:02:24.348Z,57.10
2023-05-18T17:04:51.620Z,54.97
2023-05-18T17:07:18.862Z,56.98
2023-05-18T17:09:46.372Z,56.41
2023-05-18T17:12:13.786Z,57.34
2023-05-18T17:14:40.893Z,56.80
2023-05-18T17:17:08.527Z,56.34
2023-05-18T17:19:35.629Z,53.85
2023-05-18T17:22:03.161Z,54.39
2023-05-18T17:24:30.868Z,53.08
2023-05-18T17:26:58.025Z,52.20
2023-05-18T17:29:25.366Z,50.24
2023-05-18T17:31:52.967Z,47.38
2023-05-18T17:34:20.517Z,46.37
2023-05-18T17:36:47.730Z,51.04
2023-05-18T17:39:18.126Z,50.84
2023-05-18T17:41:45.516Z,56.55
2023-05-18T17:44:16.856Z,49.61
2023-05-18T17:46:47.104Z,49.80
2023-05-18T17:49:14.628Z,49.48
2023-05-18T17:51:42.635Z,50.35
2023-05-18T17:54:10.079Z,50.69
2023-05-18T17:56:37.610Z,51.77
2023-05-18T17:59:05.341Z,50.94
2023-05-18T18:01:33.531Z,46.10
2023-05-18T18:04:01.561Z,47.19
2023-05-18T18:06:28.835Z,47.38
2023-05-18T18:08:57.688Z,50.59
2023-05-18T18:11:25.930Z,49.19
2023-05-18T18:13:53.172Z,52.31
2023-05-18T18:16:20.730Z,52.50
2023-05-18T18:18:48.436Z,52.29
2023-05-18T18:21:15.784Z,52.82
2023-05-18T18:23:43.069Z,53.60
2023-05-18T18:26:12.936Z,56.02
2023-05-18T18:28:40.361Z,55.50
2023-05-18T18:31:07.836Z,56.03
2023-05-18T18:33:35.745Z,56.14
2023-05-18T18:36:05.683Z,54.51
2023-05-18T18:38:34.368Z,54.68
2023-05-18T18:41:04.627Z,52.96
2023-05-18T18:43:32.049Z,53.89
2023-05-18T18:45:59.961Z,53.58
2023-05-18T18:48:27.686Z,52.46
2023-05-18T18:50:55.238Z,54.30
2023-05-18T18:53:23.221Z,56.06
2023-05-18T18:55:51.124Z,53.45
2023-05-18T18:58:18.506Z,55.30
2023-05-18T19:00:47.336Z,53.03
2023-05-18T19:03:16.250Z,54.97
2023-05-18T19:05:43.632Z,55.91
2023-05-18T19:08:10.927Z,55.80
2023-05-18T19:10:38.548Z,55.58
2023-05-18T19:13:06.921Z,56.16
2023-05-18T19:15:34.997Z,55.50
2023-05-18T19:18:04.093Z,56.71
2023-05-18T19:20:31.500Z,56.42
2023-05-18T19:22:59.128Z,56.79
2023-05-18T19:25:27.118Z,56.80
2023-05-18T19:27:54.471Z,56.85
2023-05-18T19:30:22.575Z,56.79
2023-05-18T19:32:51.088Z,56.85
2023-05-18T19:35:21.915Z,58.30
2023-05-18T19:37:49.702Z,58.37
2023-05-18T19:40:17.254Z,59.56
2023-05-18T19:42:44.717Z,59.92
2023-05-18T19:45:13.093Z,59.85
2023-05-18T19:47:40.613Z,60.23
2023-05-18T19:50:08.141Z,61.85
2023-05-18T19:52:35.625Z,60.97
2023-05-18T19:55:02.970Z,60.64
2023-05-18T19:57:31.337Z,62.58
2023-05-18T19:59:58.894Z,63.03
2023-05-18T20:02:26.172Z,60.82
2023-05-18T20:04:54.072Z,58.98
2023-05-18T20:07:22.538Z,59.92
2023-05-18T20:09:52.906Z,60.66
2023-05-18T20:12:20.429Z,60.25
2023-05-18T20:14:48.457Z,59.45
2023-05-18T20:17:16.963Z,58.52
2023-05-18T20:19:49.836Z,59.15
2023-05-18T20:22:17.299Z,56.68
2023-05-18T20:24:45.080Z,58.02
2023-05-18T20:27:15.311Z,59.21
2023-05-18T20:29:42.508Z,58.65
2023-05-18T20:32:09.991Z,58.41
2023-05-18T20:34:37.249Z,58.28
2023-05-18T20:37:09.223Z,57.87
2023-05-18T20:39:40.516Z,57.68
2023-05-18T20:42:12.540Z,57.90
2023-05-18T20:44:42.658Z,57.76
2023-05-18T20:47:11.219Z,56.68
2023-05-18T20:49:38.456Z,59.33
2023-05-18T20:52:06.282Z,59.66
2023-05-18T20:54:33.511Z,57.58
2023-05-18T20:57:00.924Z,57.83
2023-05-18T20:59:28.430Z,57.86
2023-05-18T21:01:56.612Z,57.62
2023-05-18T21:04:23.978Z,57.99
2023-05-18T21:06:51.663Z,58.12
2023-05-18T21:09:19.411Z,57.61
2023-05-18T21:11:46.652Z,57.34
2023-05-18T21:14:14.196Z,57.38
2023-05-18T21:16:41.672Z,57.81
2023-05-18T21:19:09.117Z,57.84
2023-05-18T21:21:36.721Z,57.81
2023-05-18T21:24:03.911Z,59.45
2023-05-18T21:26:31.126Z,59.23
2023-05-18T21:28:58.625Z,59.87
2023-05-18T21:31:26.303Z,61.14
2023-05-18T21:33:53.566Z,63.16
2023-05-18T21:36:23.341Z,63.99
2023-05-18T21:38:50.502Z,63.47
2023-05-18T21:41:17.670Z,62.47
2023-05-18T21:43:45.125Z,61.05
2023-05-18T21:46:12.442Z,60.53
2023-05-18T21:48:39.692Z,58.63
2023-05-18T21:51:07.148Z,58.88
2023-05-18T21:53:34.472Z,58.65
2023-05-18T21:56:01.670Z,58.14
2023-05-18T21:58:29.161Z,58.13
2023-05-18T22:00:56.527Z,58.23
2023-05-18T22:03:24.588Z,58.29
2023-05-18T22:05:52.573Z,58.04
2023-05-18T22:08:20.132Z,59.11
2023-05-18T22:10:47.620Z,60.24
2023-05-18T22:13:15.302Z,60.49
2023-05-18T22:15:42.609Z,58.42
2023-05-18T22:18:10.192Z,57.58
2023-05-18T22:20:37.453Z,58.11
2023-05-18T22:23:04.656Z,58.76
2023-05-18T22:25:32.230Z,58.77
2023-05-18T22:27:59.433Z,58.56
2023-05-18T22:30:28.425Z,59.51
2023-05-18T22:32:57.568Z,58.82
2023-05-18T22:35:24.864Z,59.18
2023-05-18T22:37:52.053Z,58.98
2023-05-18T22:40:20.989Z,60.17
2023-05-18T22:42:48.165Z,59.47
2023-05-18T22:45:15.424Z,59.78
2023-05-18T22:47:45.227Z,59.88
2023-05-18T22:50:12.560Z,59.56
2023-05-18T22:52:40.617Z,58.97
2023-05-18T22:55:13.888Z,58.97
2023-05-18T22:57:41.364Z,60.03
2023-05-18T23:00:10.516Z,59.69
2023-05-18T23:02:37.929Z,59.33
2023-05-18T23:05:05.509Z,58.71
2023-05-18T23:07:36.143Z,58.87
2023-05-18T23:10:06.414Z,56.96
2023-05-18T23:12:36.760Z,58.09
2023-05-18T23:15:04.311Z,58.45
2023-05-18T23:17:39.021Z,59.07
2023-05-18T23:20:06.941Z,58.72
2023-05-18T23:22:34.954Z,59.37
2023-05-18T23:25:04.394Z,59.50
2023-05-18T23:27:32.011Z,57.39
2023-05-18T23:29:59.348Z,57.71
2023-05-18T23:32:26.906Z,58.38
2023-05-18T23:34:56.247Z,57.52
2023-05-18T23:37:23.898Z,56.39
2023-05-18T23:39:54.052Z,58.18
2023-05-18T23:42:21.518Z,57.61
2023-05-18T23:44:48.856Z,58.51
2023-05-18T23:47:16.617Z,58.08
2023-05-18T23:49:44.550Z,58.48
2023-05-18T23:52:11.945Z,58.22
2023-05-18T23:54:39.512Z,58.00
2023-05-18T23:57:07.558Z,59.09
2023-05-18T23:59:34.900Z,60.07
